Details From KBDR - Igor I Sikorsky Mem
To TNCC - Curacao Hato
Flight Number -
Tags Decoded
Created
Modified
Stats Distance 1,753 nm / 3,247 km
Max Altitude 0 ft / 0 m
Waypoints 2
Social Downloads 0
Likes 0
Share VATSIM

Download

Looking for another format? Having issues loading an existing format? Contact us
Advertisement - Login to hide

Notes

Decoded

Route

MARES PJG

ID Type Via Altitude Latitude Longitude Leg Dist Tot Dist Heading (true) Name
O MARES FIX - 0 ft / 0 m 41.14251˚ -73.33167˚ - 0 nm - -
O PJG VOR - 0 ft / 0 m 12.20028˚ -69.01000˚ 1753 nm 1753 nm 171° / 173° CURACAO VOR-DME

Altitude Profile

Advertisement - Login to hide

Weather


0- 5 10 15 20 25 30 35+ Temperature / ° C

Clouds and Precipitation
Forecast for 2017-12-16 18:00 UTC. Updated 8 minutes ago

Ground ~20,000 ft ~40,000 ft Winds

KBDR

Details ICAO KBDR (BDR)
Name IGOR I SIKORSKY MEM
Region United States
Timezone America/New_York (UTC-5.0)
Stats Elevation 9 ft / 3 m (AMSL)
Location 41.164347° -73.126199°
Runways 3
Magnetic Variation 13.437° W

METAR

KBDR 161652Z 27012G21KT 10SM SCT047 02/M07 A3000 RMK AO2 SLP159 T00171067

Decode

TAF

TAF AMD KBDR 161432Z 1615/1712 26014G24KT P6SM SCT050 BKN130 FM162100 27012KT P6SM VCSH BKN035 FM170000 30009KT P6SM BKN035 FM170200 33006KT P6SM SCT050

Decode

Departure Runways

ID Width Length Bearing (true) Bearing (mag) Surface Threshold Offset Overrun Length
06 150 ft / 46 m 4,675 ft / 1,425 m 44.90° 58.34° Asphalt 0 ft / 0 m 300 ft / 91 m
11 150 ft / 46 m 4,748 ft / 1,447 m 97.86° 111.30° Asphalt 0 ft / 0 m 300 ft / 91 m
17 150 ft / 46 m 3,392 ft / 1,034 m 162.99° 176.43° Asphalt 0 ft / 0 m 1,200 ft / 366 m
24 150 ft / 46 m 4,675 ft / 1,425 m 224.90° 238.34° Asphalt 319 ft / 97 m 0 ft / 0 m
29 150 ft / 46 m 4,748 ft / 1,447 m 277.87° 291.31° Asphalt 364 ft / 111 m 0 ft / 0 m
35 150 ft / 46 m 3,392 ft / 1,034 m 343.00° 356.44° Asphalt 0 ft / 0 m 300 ft / 91 m

TNCC

Details ICAO TNCC (CUR)
Name Curacao Hato
Region Caribbean Netherlands, Aruba, Curaçao, Sint Maarten
Timezone Unknown (UTC+0.0)
Stats Elevation 29 ft / 9 m (AMSL)
Location 12.188853° -68.959803°
Runways 1
Magnetic Variation 11.331° W

METAR

TNCC 161700Z 09009KT 9999 -SHRA BKN017TCU 28/24 Q1015 RERA NOSIG

Decode

TAF

Not found

Destination Runways

ID Width Length Bearing (true) Bearing (mag) Surface Threshold Offset Overrun Length
11 197 ft / 60 m 11,197 ft / 3,413 m 102.24° 113.57° Asphalt 300 ft / 91 m 0 ft / 0 m
29 197 ft / 60 m 11,197 ft / 3,413 m 282.24° 293.57° Asphalt 300 ft / 91 m 200 ft / 61 m

Approach Navaids

Runway Type Ident Frequency Range Bearing (true) Bearing (mag) Slope Elevation
11 Localiser IATO 111.90 MHz 18 nm / 33 km 102.23° 113.56° - 29 ft / 9 m (AMSL)
11 Glidescope IATO 111.90 MHz 10 nm / 19 km 102.24° 113.57° 3.00° 29 ft / 9 m (AMSL)
11 DME IATO 111.90 MHz 18 nm / 33 km - - - 29 ft / 9 m (AMSL)